createdAt,value
2019-02-19T16:40:12.219Z,74
2019-02-19T16:41:12.186Z,74
2019-02-19T16:42:12.204Z,74
2019-02-19T16:43:12.218Z,74
2019-02-19T16:44:12.211Z,75
2019-02-19T16:45:12.275Z,75
2019-02-19T16:46:12.244Z,76
2019-02-19T16:47:12.322Z,76
2019-02-19T16:48:12.273Z,76
2019-02-19T16:49:12.280Z,76
2019-02-19T16:50:12.558Z,75
2019-02-19T16:51:12.284Z,75
2019-02-19T16:52:12.313Z,75
2019-02-19T16:53:12.307Z,75
2019-02-19T16:54:12.382Z,75
2019-02-19T16:55:12.325Z,75
2019-02-19T16:56:12.461Z,75
2019-02-19T16:57:12.330Z,75
2019-02-19T16:58:12.322Z,75
2019-02-19T16:59:12.312Z,75
2019-02-19T17:00:12.488Z,75
2019-02-19T17:00:38.771Z,75
2019-02-19T17:01:38.793Z,75
2019-02-19T17:02:38.770Z,75
2019-02-19T17:03:38.766Z,75
2019-02-19T17:04:38.765Z,75
2019-02-19T17:05:38.765Z,76
2019-02-19T17:06:38.751Z,76
2019-02-19T17:07:38.800Z,76
2019-02-19T17:08:38.844Z,76
2019-02-19T17:09:38.793Z,75
2019-02-19T17:10:38.872Z,75
2019-02-19T17:11:38.825Z,75
2019-02-19T17:12:38.830Z,75
2019-02-19T17:13:38.880Z,75
2019-02-19T17:14:38.897Z,75
2019-02-19T17:15:38.866Z,75
2019-02-19T17:16:38.835Z,75
2019-02-19T17:17:38.981Z,75
2019-02-19T17:18:38.847Z,75
2019-02-19T17:19:38.842Z,75
2019-02-19T17:20:38.907Z,75
2019-02-19T17:21:38.872Z,76
2019-02-19T17:22:38.905Z,75
2019-02-19T17:23:38.848Z,75
2019-02-19T17:24:38.935Z,75
2019-02-19T17:25:38.910Z,75
2019-02-19T17:26:38.904Z,75
2019-02-19T17:27:39.069Z,75
2019-02-19T17:28:39.023Z,75
2019-02-19T17:29:38.933Z,75
2019-02-19T17:30:38.967Z,75
2019-02-19T17:31:38.999Z,75
2019-02-19T17:32:39.057Z,76
2019-02-19T17:33:39.027Z,76
2019-02-19T17:34:39.017Z,76
2019-02-19T17:35:39.017Z,75
2019-02-19T17:36:39.013Z,75
2019-02-19T17:37:39.100Z,75
2019-02-19T17:38:39.034Z,75
2019-02-19T17:39:39.063Z,75
2019-02-19T17:40:39.045Z,75
2019-02-19T17:41:39.042Z,75
2019-02-19T17:42:39.064Z,75
2019-02-19T17:43:39.050Z,75
2019-02-19T17:44:39.044Z,75
2019-02-19T17:45:39.180Z,75
2019-02-19T17:46:39.058Z,75
2019-02-19T17:47:39.066Z,75
2019-02-19T17:48:39.057Z,75
2019-02-19T17:49:39.085Z,76
2019-02-19T17:50:39.154Z,75
2019-02-19T17:51:39.174Z,75
2019-02-19T17:52:39.144Z,75
2019-02-19T17:53:39.137Z,75
2019-02-19T17:54:39.172Z,75
2019-02-19T17:55:39.212Z,74
2019-02-19T17:56:39.180Z,74
2019-02-19T17:57:39.526Z,74
2019-02-19T17:58:39.257Z,75
2019-02-19T17:59:39.233Z,75
2019-02-19T18:00:39.235Z,75
2019-02-19T18:01:44.233Z,76
2019-02-19T18:02:39.319Z,76
2019-02-19T18:03:39.243Z,76
2019-02-19T18:04:39.280Z,76
2019-02-19T18:05:39.260Z,76
2019-02-19T18:06:39.260Z,76
2019-02-19T18:07:39.274Z,76
2019-02-19T18:08:39.277Z,76
2019-02-19T18:09:39.349Z,76
2019-02-19T18:10:39.294Z,76
2019-02-19T18:11:39.309Z,76
2019-02-19T18:12:39.331Z,76
2019-02-19T18:13:39.337Z,76
2019-02-19T18:14:39.351Z,76
2019-02-19T18:15:39.302Z,76
2019-02-19T18:16:39.344Z,76
2019-02-19T18:17:39.322Z,75
2019-02-19T18:18:39.444Z,76
2019-02-19T18:19:39.415Z,76
2019-02-19T18:20:47.229Z,75
2019-02-19T18:21:39.420Z,75
2019-02-19T18:22:39.426Z,75
2019-02-19T18:23:39.409Z,75
2019-02-19T18:24:39.468Z,76
2019-02-19T18:25:39.414Z,75
2019-02-19T18:26:39.454Z,75
2019-02-19T18:27:39.492Z,75
2019-02-19T18:28:39.466Z,75
2019-02-19T18:29:39.477Z,75
2019-02-19T18:30:39.472Z,76
2019-02-19T18:31:39.470Z,76
2019-02-19T18:32:39.474Z,76
2019-02-19T18:33:39.487Z,76
2019-02-19T18:34:39.485Z,76
2019-02-19T18:35:39.503Z,76
2019-02-19T18:36:39.498Z,76
2019-02-19T18:37:39.489Z,76
2019-02-19T18:38:39.512Z,76
2019-02-19T18:39:39.503Z,76
2019-02-19T18:40:39.531Z,76
2019-02-19T18:41:39.526Z,77
2019-02-19T18:42:39.535Z,77
2019-02-19T18:43:39.555Z,77
2019-02-19T18:44:39.614Z,77
2019-02-19T18:45:39.588Z,76
2019-02-19T18:46:39.618Z,76
2019-02-19T18:47:39.600Z,76
2019-02-19T18:48:39.597Z,76
2019-02-19T18:49:39.616Z,77
2019-02-19T18:50:39.623Z,77
2019-02-19T18:51:39.667Z,77
2019-02-19T18:52:39.763Z,77
2019-02-19T18:53:39.627Z,77
2019-02-19T18:54:39.662Z,77
2019-02-19T18:55:39.654Z,77
2019-02-19T18:56:39.664Z,77
2019-02-19T18:57:39.692Z,77
2019-02-19T18:58:39.701Z,77
2019-02-19T18:59:39.654Z,77
2019-02-19T19:00:39.700Z,77
2019-02-19T19:01:39.672Z,76
2019-02-19T19:02:39.675Z,76
2019-02-19T19:03:39.709Z,76
2019-02-19T19:04:39.733Z,77
2019-02-19T19:05:39.749Z,76
2019-02-19T19:06:39.756Z,76
2019-02-19T19:07:39.760Z,76
2019-02-19T19:08:39.796Z,76
2019-02-19T19:09:39.813Z,76
2019-02-19T19:10:39.804Z,76
2019-02-19T19:11:39.787Z,75
2019-02-19T19:12:39.792Z,75
2019-02-19T19:13:39.792Z,75
2019-02-19T19:14:39.813Z,74
2019-02-19T19:15:39.840Z,74
2019-02-19T19:16:39.892Z,74
2019-02-19T19:17:39.841Z,74
2019-02-19T19:18:39.921Z,74
2019-02-19T19:19:39.874Z,74
2019-02-19T19:20:39.937Z,73
2019-02-19T19:21:39.862Z,73
2019-02-19T19:22:39.902Z,73
2019-02-19T19:23:39.895Z,73
2019-02-19T19:24:39.884Z,73
2019-02-19T19:25:39.874Z,72
2019-02-19T19:26:39.897Z,72
2019-02-19T19:27:39.938Z,72
2019-02-19T19:28:39.892Z,73
2019-02-19T19:29:39.939Z,73
2019-02-19T19:30:39.910Z,72
2019-02-19T19:31:40.027Z,73
2019-02-19T19:32:39.992Z,73
2019-02-19T19:33:39.987Z,73
2019-02-19T19:34:40.006Z,73
2019-02-19T19:35:40.018Z,73
2019-02-19T19:36:40.025Z,73
2019-02-19T19:37:40.054Z,73
2019-02-19T19:38:41.113Z,72
2019-02-19T19:39:40.076Z,73
2019-02-19T19:40:40.062Z,73
2019-02-19T19:41:40.183Z,73
2019-02-19T19:42:40.068Z,73
2019-02-19T19:43:40.099Z,72
2019-02-19T19:44:40.093Z,72
2019-02-19T19:45:40.090Z,72
2019-02-19T19:46:40.089Z,72
2019-02-19T19:47:40.127Z,72
2019-02-19T19:48:40.117Z,72
2019-02-19T19:49:40.107Z,72
2019-02-19T19:50:40.142Z,72
2019-02-19T19:51:40.144Z,72
2019-02-19T19:52:40.137Z,72
2019-02-19T19:53:40.129Z,72
2019-02-19T19:54:40.113Z,72
2019-02-19T19:55:40.117Z,72
2019-02-19T19:56:40.156Z,72
2019-02-19T19:57:40.206Z,72
2019-02-19T19:58:40.181Z,72
2019-02-19T19:59:40.181Z,72
2019-02-19T20:00:40.230Z,71
2019-02-19T20:01:40.188Z,71
2019-02-19T20:02:40.220Z,71
2019-02-19T20:03:41.499Z,71
2019-02-19T20:04:40.216Z,71
2019-02-19T20:05:40.223Z,71
2019-02-19T20:06:40.239Z,71
2019-02-19T20:07:40.236Z,71
2019-02-19T20:08:40.310Z,71
2019-02-19T20:09:40.311Z,71
2019-02-19T20:10:40.295Z,70
2019-02-19T20:11:40.292Z,70
2019-02-19T20:12:40.291Z,70
2019-02-19T20:13:40.290Z,70
2019-02-19T20:14:40.312Z,71
2019-02-19T20:15:40.314Z,71
2019-02-19T20:16:40.317Z,71
2019-02-19T20:17:40.313Z,70
2019-02-19T20:18:40.307Z,70
2019-02-19T20:19:40.333Z,70
2019-02-19T20:20:40.371Z,69
2019-02-19T20:21:40.374Z,70
2019-02-19T20:22:40.355Z,70
2019-02-19T20:23:40.335Z,69
2019-02-19T20:24:40.351Z,70
2019-02-19T20:25:40.374Z,70
2019-02-19T20:26:40.375Z,70
2019-02-19T20:27:40.365Z,69
2019-02-19T20:28:40.388Z,69
2019-02-19T20:29:40.386Z,68
2019-02-19T20:30:40.459Z,68
2019-02-19T20:31:40.451Z,68
2019-02-19T20:32:40.447Z,69
2019-02-19T20:33:40.449Z,69
2019-02-19T20:34:40.443Z,69
2019-02-19T20:35:40.498Z,68
2019-02-19T20:36:40.450Z,68
2019-02-19T20:37:40.463Z,69
2019-02-19T20:38:40.448Z,68
2019-02-19T20:39:40.465Z,68
2019-02-19T20:40:40.515Z,68
2019-02-19T20:41:40.509Z,68
2019-02-19T20:42:40.517Z,68
2019-02-19T20:43:40.474Z,68
2019-02-19T20:44:40.527Z,68
2019-02-19T20:45:40.512Z,69
2019-02-19T20:46:40.498Z,68
2019-02-19T20:47:40.493Z,68
2019-02-19T20:48:40.507Z,68
2019-02-19T20:49:40.505Z,68
2019-02-19T20:50:40.603Z,68
2019-02-19T20:51:40.529Z,68
2019-02-19T20:52:41.521Z,68
2019-02-19T20:53:40.541Z,68
2019-02-19T20:54:40.526Z,67
2019-02-19T20:55:40.556Z,68
2019-02-19T20:56:40.538Z,68
2019-02-19T20:57:40.566Z,67
2019-02-19T20:58:40.539Z,68
2019-02-19T20:59:40.557Z,68
2019-02-19T21:00:40.601Z,69
2019-02-19T21:01:40.645Z,68
2019-02-19T21:02:40.553Z,68
2019-02-19T21:03:40.572Z,68
2019-02-19T21:04:40.594Z,68
2019-02-19T21:05:40.594Z,68
2019-02-19T21:06:40.609Z,68
2019-02-19T21:07:40.587Z,67
2019-02-19T21:08:40.646Z,67
2019-02-19T21:09:43.591Z,67
2019-02-19T21:10:40.624Z,67
2019-02-19T21:11:40.612Z,67
2019-02-19T21:12:40.620Z,67
2019-02-19T21:13:40.611Z,67
2019-02-19T21:14:40.601Z,67
2019-02-19T21:15:40.607Z,67
2019-02-19T21:16:40.615Z,67
2019-02-19T21:17:40.638Z,68
2019-02-19T21:18:40.699Z,67
2019-02-19T21:19:40.679Z,67
2019-02-19T21:20:40.680Z,67
2019-02-19T21:21:44.864Z,66
2019-02-19T21:22:40.806Z,66
2019-02-19T21:23:40.814Z,66
2019-02-19T21:24:40.712Z,66
2019-02-19T21:25:40.697Z,67
2019-02-19T21:26:40.953Z,66
2019-02-19T21:27:40.690Z,66
2019-02-19T21:28:45.715Z,66
2019-02-19T21:29:40.747Z,67
2019-02-19T21:30:40.711Z,67
2019-02-19T21:31:40.723Z,67
2019-02-19T21:32:40.711Z,66
2019-02-19T21:33:40.773Z,66
2019-02-19T21:34:40.788Z,67
2019-02-19T21:35:40.808Z,67
2019-02-19T21:36:40.808Z,67
2019-02-19T21:37:40.813Z,67
2019-02-19T21:38:40.825Z,67
2019-02-19T21:39:40.961Z,67
2019-02-19T21:40:40.904Z,67
2019-02-19T21:41:40.927Z,66
2019-02-19T21:42:40.873Z,66
2019-02-19T21:43:40.858Z,66
2019-02-19T21:44:40.927Z,66
2019-02-19T21:45:40.943Z,66
2019-02-19T21:46:41.290Z,67
2019-02-19T21:47:40.916Z,66
2019-02-19T21:48:47.692Z,67
2019-02-19T21:49:40.965Z,67
2019-02-19T21:50:40.942Z,67
2019-02-19T21:51:40.937Z,67
2019-02-19T21:52:40.943Z,66
2019-02-19T21:53:40.948Z,66
2019-02-19T21:54:41.051Z,66
2019-02-19T21:55:40.945Z,66
2019-02-19T21:56:41.763Z,66
2019-02-19T21:57:45.948Z,65
2019-02-19T21:58:41.010Z,65
2019-02-19T21:59:41.027Z,65
2019-02-19T22:00:40.979Z,66
2019-02-19T22:01:40.999Z,65
2019-02-19T22:02:41.074Z,65
2019-02-19T22:03:41.012Z,65
2019-02-19T22:04:41.034Z,65
2019-02-19T22:05:41.077Z,65
2019-02-19T22:06:41.074Z,65
2019-02-19T22:07:41.142Z,65
2019-02-19T22:08:41.073Z,65
2019-02-19T22:09:41.090Z,66
2019-02-19T22:10:41.129Z,65
2019-02-19T22:11:41.131Z,65
2019-02-19T22:12:41.181Z,66
2019-02-19T22:13:41.099Z,66
2019-02-19T22:14:41.110Z,65
2019-02-19T22:15:41.116Z,65
2019-02-19T22:16:41.149Z,65
2019-02-19T22:17:41.218Z,65
2019-02-19T22:18:42.158Z,65
2019-02-19T22:19:41.147Z,65
2019-02-19T22:20:41.145Z,66
2019-02-19T22:21:41.169Z,66
2019-02-19T22:22:41.177Z,65
2019-02-19T22:23:41.195Z,66
2019-02-19T22:24:41.179Z,66
2019-02-19T22:25:41.180Z,66
2019-02-19T22:26:41.206Z,66
2019-02-19T22:27:41.282Z,66
2019-02-19T22:28:41.244Z,66
2019-02-19T22:29:41.269Z,66
2019-02-19T22:30:41.226Z,66
2019-02-19T22:31:41.241Z,66
2019-02-19T22:32:41.263Z,66
2019-02-19T22:33:41.273Z,66
2019-02-19T22:34:41.308Z,67
2019-02-19T22:35:41.317Z,67
2019-02-19T22:36:41.280Z,67
2019-02-19T22:37:41.303Z,67
2019-02-19T22:38:41.282Z,67
2019-02-19T22:39:41.290Z,67
2019-02-19T22:40:41.340Z,67
2019-02-19T22:41:41.362Z,67
2019-02-19T22:42:41.318Z,67
2019-02-19T22:43:41.345Z,67
2019-02-19T22:44:41.308Z,67
2019-02-19T22:45:41.402Z,67
2019-02-19T22:46:41.389Z,67
2019-02-19T22:47:41.369Z,67
2019-02-19T22:48:41.379Z,67
2019-02-19T22:49:41.374Z,67
2019-02-19T22:50:41.394Z,67
2019-02-19T22:51:41.448Z,67
2019-02-19T22:52:41.429Z,67
2019-02-19T22:53:41.443Z,67
2019-02-19T22:54:41.439Z,67
2019-02-19T22:55:41.454Z,67
2019-02-19T22:56:41.485Z,67
2019-02-19T22:57:41.449Z,68
2019-02-19T22:58:41.459Z,68
2019-02-19T22:59:41.477Z,68
2019-02-19T23:00:41.469Z,68
2019-02-19T23:01:41.499Z,68
2019-02-19T23:02:41.531Z,68
2019-02-19T23:03:41.495Z,69
2019-02-19T23:04:41.494Z,69
2019-02-19T23:05:41.522Z,68
2019-02-19T23:06:41.549Z,68
2019-02-19T23:07:41.554Z,68
2019-02-19T23:08:41.518Z,68
2019-02-19T23:09:41.615Z,68
2019-02-19T23:10:41.519Z,68
2019-02-19T23:11:41.547Z,68
2019-02-19T23:12:41.631Z,68
2019-02-19T23:13:41.576Z,67
2019-02-19T23:14:41.653Z,67
2019-02-19T23:15:41.659Z,68
2019-02-19T23:16:41.694Z,67
2019-02-19T23:17:41.641Z,67
2019-02-19T23:18:41.636Z,67
2019-02-19T23:19:42.945Z,67
2019-02-19T23:20:41.699Z,67
2019-02-19T23:21:41.700Z,67
2019-02-19T23:22:41.684Z,67
2019-02-19T23:23:41.672Z,67
2019-02-19T23:24:41.694Z,67
2019-02-19T23:25:41.707Z,67
2019-02-19T23:26:41.696Z,67
2019-02-19T23:27:41.760Z,67
2019-02-19T23:28:41.708Z,67
2019-02-19T23:29:41.705Z,67
2019-02-19T23:30:41.739Z,67
2019-02-19T23:31:41.763Z,67
2019-02-19T23:32:41.761Z,67
2019-02-19T23:33:41.715Z,68
2019-02-19T23:34:41.741Z,67
2019-02-19T23:35:41.999Z,67
2019-02-19T23:36:41.803Z,68
2019-02-19T23:37:41.871Z,67
2019-02-19T23:38:41.795Z,67
2019-02-19T23:39:43.706Z,67
2019-02-19T23:40:41.850Z,67
2019-02-19T23:41:41.829Z,67
2019-02-19T23:42:41.875Z,67
2019-02-19T23:43:41.837Z,67
2019-02-19T23:44:41.927Z,67
2019-02-19T23:45:41.932Z,67
2019-02-19T23:46:41.879Z,67
2019-02-19T23:47:42.032Z,66
2019-02-19T23:48:41.983Z,67
2019-02-19T23:49:41.932Z,66
2019-02-19T23:50:41.938Z,66
2019-02-19T23:51:41.924Z,66
2019-02-19T23:52:41.974Z,66
2019-02-19T23:53:42.955Z,66
2019-02-19T23:54:41.935Z,66
2019-02-19T23:55:41.949Z,66
2019-02-19T23:56:41.990Z,66
2019-02-19T23:57:41.942Z,66
2019-02-19T23:58:42.005Z,66
2019-02-19T23:59:41.959Z,66
